ACA256 CYWG-CYYZ
Flight info
| Callsign | ACA256 |
|---|---|
| Flight time | 1h 4m |
| Altitude | 35000 |
| Route | RORMA DCT AXOMA DCT SIDPO DCT DEGVA DCT AGLIN DCT OTNIK BOXUM7 |
| Aircraft | A320/M-SDE3FGHIRWY/LB1 |
Departure
| Time | 2026-05-04 13:23 |
|---|---|
| Airport | Winnipeg / James Armstrong Richardson International Airport (CYWG) |
Arrival
| Time | 2026-05-04 14:27 |
|---|---|
| Airport | Toronto Pearson International Airport (CYYZ) |
| Time | Latitude | Longitude | Altitude | Speed | Heading |
|---|---|---|---|---|---|
| 2026-05-04 13:10 | 49.90651 | -97.22725 | 785 ft | 0 kts | 162° |
| 2026-05-04 13:18 | 49.90667 | -97.22733 | 784 ft | 2 kts | 181° |
| 2026-05-04 13:18 | 49.90678 | -97.22731 | 784 ft | 0 kts | 214° |
| 2026-05-04 13:20 | 49.90677 | -97.22732 | 784 ft | 2 kts | 216° |
| 2026-05-04 13:20 | 49.90622 | -97.22839 | 784 ft | 22 kts | 210° |
| 2026-05-04 13:20 | 49.90431 | -97.22821 | 785 ft | 36 kts | 191° |
| 2026-05-04 13:21 | 49.90163 | -97.22813 | 785 ft | 41 kts | 156° |
| 2026-05-04 13:21 | 49.90009 | -97.22801 | 784 ft | 16 kts | 188° |
| 2026-05-04 13:21 | 49.89857 | -97.22803 | 784 ft | 28 kts | 134° |
| 2026-05-04 13:21 | 49.89766 | -97.22630 | 786 ft | 26 kts | 134° |
| 2026-05-04 13:22 | 49.89613 | -97.22643 | 784 ft | 28 kts | 223° |
| 2026-05-04 13:22 | 49.89575 | -97.22877 | 783 ft | 25 kts | 304° |
| 2026-05-04 13:22 | 49.89871 | -97.23285 | 785 ft | 97 kts | 318° |
| 2026-05-04 13:22 | 49.90492 | -97.24151 | 1051 ft | 130 kts | 319° |
| 2026-05-04 13:23 | 49.91176 | -97.25026 | 1721 ft | 135 kts | 321° |
| 2026-05-04 13:23 | 49.91929 | -97.26001 | 2196 ft | 159 kts | 321° |
| 2026-05-04 13:23 | 49.92861 | -97.27209 | 2714 ft | 181 kts | 321° |
| 2026-05-04 13:23 | 49.93979 | -97.28038 | 3379 ft | 200 kts | 348° |
| 2026-05-04 13:24 | 49.95424 | -97.27607 | 3927 ft | 239 kts | 25° |
| 2026-05-04 13:24 | 49.96538 | -97.25672 | 4539 ft | 267 kts | 61° |
| 2026-05-04 13:24 | 49.96885 | -97.22824 | 5367 ft | 285 kts | 83° |
| 2026-05-04 13:25 | 49.96463 | -97.16750 | 7100 ft | 298 kts | 93° |
| 2026-05-04 13:25 | 49.96133 | -97.13596 | 7992 ft | 301 kts | 93° |
| 2026-05-04 13:25 | 49.95840 | -97.10428 | 8851 ft | 304 kts | 91° |
| 2026-05-04 13:25 | 49.95604 | -97.07210 | 9707 ft | 307 kts | 90° |
| 2026-05-04 13:26 | 49.95411 | -97.03869 | 10164 ft | 327 kts | 89° |
| 2026-05-04 13:26 | 49.95247 | -97.00387 | 10464 ft | 350 kts | 89° |
| 2026-05-04 13:26 | 49.95087 | -96.96592 | 10722 ft | 373 kts | 90° |
| 2026-05-04 13:26 | 49.94916 | -96.92584 | 11059 ft | 392 kts | 90° |
| 2026-05-04 13:27 | 49.94728 | -96.88411 | 11702 ft | 400 kts | 91° |
| 2026-05-04 13:27 | 49.94530 | -96.84184 | 12401 ft | 407 kts | 91° |
| 2026-05-04 13:27 | 49.94330 | -96.80067 | 13085 ft | 412 kts | 91° |
| 2026-05-04 13:27 | 49.94109 | -96.75555 | 13807 ft | 418 kts | 92° |
| 2026-05-04 13:28 | 49.93903 | -96.71113 | 14486 ft | 423 kts | 91° |
| 2026-05-04 13:28 | 49.93782 | -96.66759 | 15126 ft | 428 kts | 89° |
| 2026-05-04 13:28 | 49.93732 | -96.61318 | 15904 ft | 435 kts | 88° |
| 2026-05-04 13:28 | 49.93711 | -96.42698 | 18320 ft | 453 kts | 89° |
| 2026-05-04 13:29 | 49.93500 | -96.22945 | 20227 ft | 470 kts | 89° |
| 2026-05-04 13:29 | 49.93282 | -96.02729 | 21840 ft | 480 kts | 90° |
| 2026-05-04 13:29 | 49.93062 | -95.82685 | 23185 ft | 489 kts | 90° |
| 2026-05-04 13:29 | 49.92771 | -95.62324 | 24397 ft | 496 kts | 90° |
| 2026-05-04 13:30 | 49.92454 | -95.41166 | 25407 ft | 504 kts | 90° |
| 2026-05-04 13:30 | 49.92079 | -95.20210 | 26256 ft | 512 kts | 90° |
| 2026-05-04 13:30 | 49.91626 | -94.98293 | 27357 ft | 511 kts | 91° |
| 2026-05-04 13:30 | 49.87670 | -94.77294 | 28532 ft | 509 kts | 114° |
| 2026-05-04 13:31 | 49.81968 | -94.57330 | 29713 ft | 506 kts | 114° |
| 2026-05-04 13:31 | 49.76886 | -94.38191 | 30831 ft | 503 kts | 114° |
| 2026-05-04 13:31 | 49.71512 | -94.18849 | 31974 ft | 500 kts | 115° |
| 2026-05-04 13:31 | 49.66104 | -93.99593 | 33023 ft | 498 kts | 115° |
| 2026-05-04 13:32 | 49.64993 | -93.91541 | 30747 ft | 527 kts | 68° |
| 2026-05-04 13:32 | 49.65831 | -93.86589 | 33254 ft | 415 kts | 79° |
| 2026-05-04 13:32 | 49.66348 | -93.82266 | 34130 ft | 437 kts | 85° |
| 2026-05-04 13:32 | 49.66021 | -93.77569 | 33572 ft | 457 kts | 111° |
| 2026-05-04 13:33 | 49.64553 | -93.73378 | 33715 ft | 452 kts | 132° |
| 2026-05-04 13:33 | 49.62576 | -93.69843 | 33905 ft | 453 kts | 134° |
| 2026-05-04 13:33 | 49.60535 | -93.66268 | 34101 ft | 455 kts | 134° |
| 2026-05-04 13:33 | 49.58505 | -93.62714 | 34296 ft | 456 kts | 134° |
| 2026-05-04 13:34 | 49.54383 | -93.55508 | 34385 ft | 467 kts | 134° |
| 2026-05-04 13:34 | 49.52567 | -93.51653 | 34377 ft | 477 kts | 120° |
| 2026-05-04 13:34 | 49.51165 | -93.46878 | 34376 ft | 485 kts | 114° |
| 2026-05-04 13:35 | 49.47141 | -93.32786 | 34354 ft | 501 kts | 116° |
| 2026-05-04 13:36 | 49.41665 | -93.14181 | 34341 ft | 506 kts | 116° |
| 2026-05-04 13:36 | 49.36043 | -92.94876 | 34334 ft | 507 kts | 116° |
| 2026-05-04 13:37 | 49.30288 | -92.75318 | 34346 ft | 508 kts | 117° |
| 2026-05-04 13:37 | 49.24605 | -92.56146 | 34348 ft | 508 kts | 117° |
| 2026-05-04 13:38 | 49.18850 | -92.36934 | 34335 ft | 507 kts | 117° |
| 2026-05-04 13:38 | 49.13060 | -92.17754 | 34319 ft | 507 kts | 117° |
| 2026-05-04 13:39 | 49.07278 | -91.98715 | 34317 ft | 509 kts | 118° |
| 2026-05-04 13:39 | 49.01438 | -91.79621 | 34332 ft | 509 kts | 119° |
| 2026-05-04 13:40 | 48.95672 | -91.60971 | 34332 ft | 510 kts | 119° |
| 2026-05-04 13:40 | 48.89721 | -91.41834 | 34312 ft | 511 kts | 119° |
| 2026-05-04 13:41 | 48.83842 | -91.22965 | 34302 ft | 511 kts | 120° |
| 2026-05-04 13:41 | 48.77706 | -91.03628 | 34297 ft | 511 kts | 120° |
| 2026-05-04 13:42 | 48.68656 | -90.75230 | 34297 ft | 511 kts | 121° |
| 2026-05-04 13:42 | 48.62695 | -90.56710 | 34295 ft | 511 kts | 121° |
| 2026-05-04 13:43 | 48.56564 | -90.37805 | 34287 ft | 512 kts | 122° |
| 2026-05-04 13:43 | 48.50366 | -90.18927 | 34282 ft | 514 kts | 122° |
| 2026-05-04 13:44 | 48.44264 | -90.00323 | 34274 ft | 515 kts | 122° |
| 2026-05-04 13:44 | 48.37990 | -89.81352 | 34268 ft | 515 kts | 123° |
| 2026-05-04 13:45 | 48.31746 | -89.62603 | 34271 ft | 515 kts | 123° |
| 2026-05-04 13:45 | 48.25447 | -89.43993 | 34275 ft | 516 kts | 123° |
| 2026-05-04 13:46 | 48.19886 | -89.24918 | 34270 ft | 520 kts | 117° |
| 2026-05-04 13:46 | 48.14397 | -89.05131 | 34274 ft | 518 kts | 118° |
| 2026-05-04 13:47 | 48.04590 | -88.71518 | 34278 ft | 519 kts | 118° |
| 2026-05-04 13:47 | 47.93304 | -88.33135 | 34269 ft | 522 kts | 118° |
| 2026-05-04 13:48 | 47.81685 | -87.94244 | 34312 ft | 524 kts | 118° |
| 2026-05-04 13:48 | 47.69890 | -87.55426 | 34315 ft | 525 kts | 118° |
| 2026-05-04 13:49 | 47.58099 | -87.17284 | 34329 ft | 522 kts | 118° |
| 2026-05-04 13:49 | 47.46229 | -86.79260 | 34346 ft | 520 kts | 117° |
| 2026-05-04 13:50 | 47.34380 | -86.42025 | 34352 ft | 518 kts | 117° |
| 2026-05-04 13:50 | 47.22093 | -86.04121 | 34425 ft | 517 kts | 117° |
| 2026-05-04 13:51 | 47.09775 | -85.66344 | 34452 ft | 515 kts | 117° |
| 2026-05-04 13:51 | 46.97536 | -85.29448 | 34480 ft | 513 kts | 117° |
| 2026-05-04 13:52 | 46.78915 | -84.74473 | 34505 ft | 512 kts | 117° |
| 2026-05-04 13:53 | 46.66462 | -84.38223 | 34548 ft | 512 kts | 117° |
| 2026-05-04 13:53 | 46.54003 | -84.02442 | 34585 ft | 511 kts | 117° |
| 2026-05-04 13:54 | 46.33536 | -83.50154 | 34595 ft | 509 kts | 127° |
| 2026-05-04 13:54 | 46.17140 | -83.17899 | 34395 ft | 506 kts | 130° |
| 2026-05-04 13:55 | 46.14074 | -83.11704 | 34643 ft | 508 kts | 124° |
| 2026-05-04 13:55 | 46.02503 | -82.87119 | 34643 ft | 508 kts | 128° |
| 2026-05-04 13:56 | 45.94325 | -82.71158 | 34640 ft | 507 kts | 127° |
| 2026-05-04 13:57 | 45.82176 | -82.47086 | 34640 ft | 506 kts | 127° |
| 2026-05-04 13:58 | 45.65969 | -82.15409 | 34636 ft | 505 kts | 127° |
| 2026-05-04 13:58 | 45.57171 | -82.00862 | 34639 ft | 502 kts | 139° |
| 2026-05-04 13:58 | 45.52102 | -81.94083 | 34645 ft | 502 kts | 139° |
| 2026-05-04 13:59 | 45.42202 | -81.80853 | 34654 ft | 502 kts | 139° |
| 2026-05-04 14:00 | 45.27157 | -81.60893 | 34675 ft | 502 kts | 139° |
| 2026-05-04 14:00 | 45.12114 | -81.41060 | 34678 ft | 502 kts | 139° |
| 2026-05-04 14:01 | 45.02062 | -81.27921 | 34691 ft | 501 kts | 139° |
| 2026-05-04 14:02 | 44.87023 | -81.08322 | 34704 ft | 501 kts | 139° |
| 2026-05-04 14:02 | 44.78801 | -80.97722 | 34706 ft | 500 kts | 139° |
| 2026-05-04 14:03 | 44.68712 | -80.84739 | 34710 ft | 500 kts | 140° |
| 2026-05-04 14:03 | 44.58736 | -80.71945 | 34714 ft | 498 kts | 140° |
| 2026-05-04 14:04 | 44.46291 | -80.56090 | 32775 ft | 507 kts | 140° |
| 2026-05-04 14:04 | 44.43738 | -80.52851 | 31204 ft | 507 kts | 139° |
| 2026-05-04 14:04 | 44.41157 | -80.49581 | 29439 ft | 511 kts | 139° |
| 2026-05-04 14:05 | 44.35983 | -80.43041 | 25449 ft | 517 kts | 140° |
| 2026-05-04 14:05 | 44.33357 | -80.39732 | 23205 ft | 521 kts | 140° |
| 2026-05-04 14:05 | 44.30760 | -80.36458 | 21624 ft | 513 kts | 140° |
| 2026-05-04 14:06 | 44.28228 | -80.33262 | 20336 ft | 496 kts | 140° |
| 2026-05-04 14:06 | 44.25747 | -80.30136 | 18991 ft | 483 kts | 140° |
| 2026-05-04 14:06 | 44.23339 | -80.27098 | 17659 ft | 470 kts | 140° |
| 2026-05-04 14:06 | 44.20985 | -80.24137 | 16375 ft | 459 kts | 140° |
| 2026-05-04 14:07 | 44.18692 | -80.21263 | 15322 ft | 446 kts | 140° |
| 2026-05-04 14:07 | 44.16512 | -80.18532 | 15002 ft | 417 kts | 140° |
| 2026-05-04 14:07 | 44.14472 | -80.15968 | 14852 ft | 388 kts | 140° |
| 2026-05-04 14:07 | 44.12588 | -80.13599 | 14730 ft | 362 kts | 141° |
| 2026-05-04 14:08 | 44.10857 | -80.11425 | 14450 ft | 345 kts | 141° |
| 2026-05-04 14:08 | 44.09136 | -80.09274 | 13911 ft | 339 kts | 141° |
| 2026-05-04 14:08 | 44.07462 | -80.07191 | 13335 ft | 336 kts | 141° |
| 2026-05-04 14:08 | 44.05769 | -80.05088 | 12925 ft | 330 kts | 141° |
| 2026-05-04 14:09 | 44.02460 | -80.00970 | 12442 ft | 326 kts | 142° |
| 2026-05-04 14:09 | 44.00694 | -79.99167 | 12201 ft | 321 kts | 152° |
| 2026-05-04 14:10 | 43.97055 | -79.95946 | 11675 ft | 320 kts | 152° |
| 2026-05-04 14:10 | 43.95209 | -79.94301 | 11254 ft | 321 kts | 152° |
| 2026-05-04 14:10 | 43.93384 | -79.92675 | 10971 ft | 317 kts | 152° |
| 2026-05-04 14:10 | 43.91586 | -79.91078 | 10611 ft | 316 kts | 152° |
| 2026-05-04 14:11 | 43.89767 | -79.89465 | 10273 ft | 313 kts | 152° |
| 2026-05-04 14:11 | 43.86336 | -79.86437 | 9942 ft | 296 kts | 152° |
| 2026-05-04 14:11 | 43.84714 | -79.84967 | 9823 ft | 289 kts | 147° |
| 2026-05-04 14:12 | 43.83255 | -79.83154 | 9694 ft | 283 kts | 141° |
| 2026-05-04 14:12 | 43.81868 | -79.81325 | 9478 ft | 278 kts | 141° |
| 2026-05-04 14:12 | 43.79182 | -79.77800 | 8933 ft | 274 kts | 141° |
| 2026-05-04 14:13 | 43.77928 | -79.76153 | 8638 ft | 272 kts | 142° |
| 2026-05-04 14:13 | 43.76735 | -79.74063 | 8319 ft | 277 kts | 117° |
| 2026-05-04 14:13 | 43.76401 | -79.71504 | 8001 ft | 279 kts | 83° |
| 2026-05-04 14:13 | 43.77038 | -79.69109 | 7461 ft | 282 kts | 51° |
| 2026-05-04 14:14 | 43.78306 | -79.67044 | 6710 ft | 295 kts | 44° |
| 2026-05-04 14:14 | 43.81153 | -79.62971 | 5755 ft | 298 kts | 43° |
| 2026-05-04 14:14 | 43.82561 | -79.60994 | 5619 ft | 289 kts | 43° |
| 2026-05-04 14:15 | 43.85181 | -79.57239 | 5379 ft | 268 kts | 44° |
| 2026-05-04 14:15 | 43.87590 | -79.53728 | 5152 ft | 250 kts | 44° |
| 2026-05-04 14:16 | 43.89879 | -79.50393 | 4942 ft | 243 kts | 44° |
| 2026-05-04 14:16 | 43.91033 | -79.48713 | 4848 ft | 245 kts | 43° |
| 2026-05-04 14:17 | 43.93301 | -79.45395 | 4622 ft | 243 kts | 44° |
| 2026-05-04 14:17 | 43.94442 | -79.43727 | 4527 ft | 243 kts | 44° |
| 2026-05-04 14:17 | 43.96535 | -79.40177 | 3749 ft | 252 kts | 68° |
| 2026-05-04 14:18 | 43.96818 | -79.37880 | 3420 ft | 247 kts | 98° |
| 2026-05-04 14:18 | 43.95409 | -79.34035 | 3172 ft | 219 kts | 144° |
| 2026-05-04 14:19 | 43.92763 | -79.32507 | 2956 ft | 203 kts | 182° |
| 2026-05-04 14:19 | 43.91386 | -79.32692 | 2994 ft | 202 kts | 199° |
| 2026-05-04 14:19 | 43.90162 | -79.33429 | 3008 ft | 199 kts | 215° |
| 2026-05-04 14:19 | 43.89145 | -79.34658 | 3013 ft | 200 kts | 227° |
| 2026-05-04 14:20 | 43.88209 | -79.36031 | 2999 ft | 199 kts | 227° |
| 2026-05-04 14:20 | 43.87289 | -79.37383 | 3001 ft | 199 kts | 227° |
| 2026-05-04 14:20 | 43.86353 | -79.38757 | 3004 ft | 200 kts | 227° |
| 2026-05-04 14:21 | 43.84511 | -79.41460 | 3011 ft | 201 kts | 227° |
| 2026-05-04 14:21 | 43.83574 | -79.42835 | 3016 ft | 200 kts | 226° |
| 2026-05-04 14:21 | 43.82640 | -79.44196 | 3014 ft | 199 kts | 227° |
| 2026-05-04 14:21 | 43.81704 | -79.45566 | 3006 ft | 200 kts | 227° |
| 2026-05-04 14:22 | 43.80769 | -79.46937 | 3007 ft | 199 kts | 227° |
| 2026-05-04 14:22 | 43.79832 | -79.48309 | 2952 ft | 200 kts | 226° |
| 2026-05-04 14:22 | 43.78905 | -79.49660 | 2850 ft | 196 kts | 227° |
| 2026-05-04 14:22 | 43.78019 | -79.50955 | 2768 ft | 183 kts | 227° |
| 2026-05-04 14:23 | 43.76508 | -79.53166 | 2575 ft | 145 kts | 227° |
| 2026-05-04 14:23 | 43.75849 | -79.54128 | 2413 ft | 138 kts | 227° |
| 2026-05-04 14:23 | 43.75228 | -79.55033 | 2252 ft | 135 kts | 227° |
| 2026-05-04 14:24 | 43.74595 | -79.55953 | 2084 ft | 135 kts | 227° |
| 2026-05-04 14:24 | 43.73994 | -79.56829 | 1941 ft | 132 kts | 227° |
| 2026-05-04 14:24 | 43.73373 | -79.57734 | 1739 ft | 132 kts | 227° |
| 2026-05-04 14:24 | 43.72762 | -79.58626 | 1565 ft | 130 kts | 227° |
| 2026-05-04 14:25 | 43.72153 | -79.59513 | 1399 ft | 131 kts | 226° |
| 2026-05-04 14:25 | 43.70933 | -79.61291 | 1057 ft | 131 kts | 226° |
| 2026-05-04 14:25 | 43.70329 | -79.62170 | 888 ft | 132 kts | 228° |
| 2026-05-04 14:26 | 43.69722 | -79.63050 | 721 ft | 129 kts | 226° |
| 2026-05-04 14:26 | 43.69130 | -79.63912 | 569 ft | 120 kts | 226° |
| 2026-05-04 14:26 | 43.68642 | -79.64619 | 570 ft | 98 kts | 226° |
| 2026-05-04 14:26 | 43.68239 | -79.65210 | 562 ft | 68 kts | 227° |
| 2026-05-04 14:27 | 43.67979 | -79.65455 | 566 ft | 33 kts | 201° |
| 2026-05-04 14:27 | 43.67847 | -79.65462 | 564 ft | 6 kts | 119° |
| 2026-05-04 14:27 | 43.67847 | -79.65405 | 564 ft | 7 kts | 77° |
| 2026-05-04 14:27 | 43.67953 | -79.65237 | 567 ft | 39 kts | 51° |
| 2026-05-04 14:28 | 43.68147 | -79.64948 | 565 ft | 43 kts | 46° |
| 2026-05-04 14:28 | 43.68299 | -79.64720 | 567 ft | 30 kts | 46° |
| 2026-05-04 14:28 | 43.68307 | -79.64571 | 563 ft | 12 kts | 149° |
| 2026-05-04 14:28 | 43.68222 | -79.64459 | 563 ft | 25 kts | 138° |
| 2026-05-04 14:29 | 43.67890 | -79.63952 | 557 ft | 24 kts | 83° |
| 2026-05-04 14:29 | 43.68008 | -79.63851 | 560 ft | 0 kts | 25° |
| 2026-05-04 14:30 | 43.68029 | -79.63820 | 561 ft | 13 kts | 65° |
| 2026-05-04 14:30 | 43.68028 | -79.63704 | 563 ft | 0 kts | 121° |